createdAt,value
2018-03-10T00:00:59.664Z,998.41
2018-03-10T00:01:59.659Z,998.43
2018-03-10T00:02:59.879Z,998.46
2018-03-10T00:03:59.733Z,998.47
2018-03-10T00:05:00.024Z,998.46
2018-03-10T00:05:59.737Z,998.42
2018-03-10T00:07:00.063Z,998.45
2018-03-10T00:07:59.813Z,998.46
2018-03-10T00:08:59.841Z,998.47
2018-03-10T00:09:59.843Z,998.48
2018-03-10T00:11:00.228Z,998.49
2018-03-10T00:11:59.942Z,998.53
2018-03-10T00:12:59.938Z,998.52
2018-03-10T00:14:00.022Z,998.52
2018-03-10T00:15:00.020Z,998.56
2018-03-10T00:16:00.192Z,998.52
2018-03-10T00:17:00.392Z,998.52
2018-03-10T00:18:00.120Z,998.50
2018-03-10T00:19:00.155Z,998.45
2018-03-10T00:20:00.184Z,998.47
2018-03-10T00:21:00.289Z,998.44
2018-03-10T00:22:00.295Z,998.44
2018-03-10T00:23:00.577Z,998.42
2018-03-10T00:24:00.335Z,998.42
2018-03-10T00:25:00.342Z,998.47
2018-03-10T00:26:00.409Z,998.45
2018-03-10T00:27:00.429Z,998.42
2018-03-10T00:28:00.436Z,998.44
2018-03-10T00:29:00.774Z,998.41
2018-03-10T00:30:00.489Z,998.43
2018-03-10T00:31:00.579Z,998.41
2018-03-10T00:32:00.617Z,998.36
2018-03-10T00:33:00.787Z,998.39
2018-03-10T00:34:00.594Z,998.38
2018-03-10T00:35:01.015Z,998.36
2018-03-10T00:36:00.696Z,998.37
2018-03-10T00:37:00.687Z,998.39
2018-03-10T00:38:00.751Z,998.35
2018-03-10T00:39:00.797Z,998.38
2018-03-10T00:40:00.816Z,998.35
2018-03-10T00:41:01.169Z,998.34
2018-03-10T00:42:00.862Z,998.33
2018-03-10T00:43:00.878Z,998.34
2018-03-10T00:44:00.912Z,998.33
2018-03-10T00:45:00.999Z,998.33
2018-03-10T00:46:00.967Z,998.35
2018-03-10T00:47:01.604Z,998.31
2018-03-10T00:48:01.076Z,998.31
2018-03-10T00:49:01.144Z,998.28
2018-03-10T00:50:01.162Z,998.27
2018-03-10T00:51:01.170Z,998.27
2018-03-10T00:52:01.473Z,998.25
2018-03-10T00:53:01.575Z,998.24
2018-03-10T00:54:01.435Z,998.27
2018-03-10T00:55:01.355Z,998.26
2018-03-10T00:56:01.410Z,998.24
2018-03-10T00:57:01.373Z,998.25
2018-03-10T00:58:01.410Z,998.25
2018-03-10T00:59:01.714Z,998.25
2018-03-10T01:00:01.413Z,998.27
2018-03-10T01:01:01.519Z,998.23
2018-03-10T01:02:02.757Z,998.22
2018-03-10T01:03:01.551Z,998.22
2018-03-10T01:04:01.841Z,998.21
2018-03-10T01:05:01.931Z,998.23
2018-03-10T01:06:01.607Z,998.27
2018-03-10T01:07:01.702Z,998.27
2018-03-10T01:08:01.678Z,998.30
2018-03-10T01:09:01.735Z,998.31
2018-03-10T01:10:01.768Z,998.28
2018-03-10T01:11:02.119Z,998.30
2018-03-10T01:12:01.787Z,998.37
2018-03-10T01:13:01.867Z,998.35
2018-03-10T01:14:01.861Z,998.31
2018-03-10T01:15:01.869Z,998.27
2018-03-10T01:16:01.921Z,998.30
2018-03-10T01:17:02.295Z,998.27
2018-03-10T01:18:02.056Z,998.28
2018-03-10T01:19:02.023Z,998.28
2018-03-10T01:20:02.093Z,998.25
2018-03-10T01:21:02.085Z,998.24
2018-03-10T01:22:02.156Z,998.23
2018-03-10T01:23:02.449Z,998.24
2018-03-10T01:24:02.251Z,998.20
2018-03-10T01:25:02.182Z,998.17
2018-03-10T01:26:02.275Z,998.19
2018-03-10T01:27:02.263Z,998.18
2018-03-10T01:28:04.260Z,998.18
2018-03-10T01:29:02.687Z,998.17
2018-03-10T01:30:02.334Z,998.18
2018-03-10T01:31:02.457Z,998.19
2018-03-10T01:32:02.405Z,998.16
2018-03-10T01:33:02.586Z,998.13
2018-03-10T01:34:02.592Z,998.11
2018-03-10T01:35:02.992Z,998.13
2018-03-10T01:36:02.712Z,998.15
2018-03-10T01:37:02.579Z,998.11
2018-03-10T01:39:02.753Z,998.16
2018-03-10T01:40:02.725Z,998.16
2018-03-10T01:41:02.991Z,998.12
2018-03-10T01:42:02.980Z,998.09
2018-03-10T01:43:02.899Z,998.05
2018-03-10T01:44:03.149Z,998.08
2018-03-10T01:45:02.839Z,998.11
2018-03-10T01:46:02.838Z,998.06
2018-03-10T01:47:03.179Z,998.05
2018-03-10T01:48:02.948Z,998.00
2018-03-10T01:49:02.989Z,998.01
2018-03-10T01:50:02.957Z,997.99
2018-03-10T01:51:03.069Z,997.95
2018-03-10T01:52:03.089Z,997.92
2018-03-10T01:53:03.453Z,997.86
2018-03-10T01:54:03.351Z,997.87
2018-03-10T01:55:03.189Z,997.83
2018-03-10T01:56:03.276Z,997.78
2018-03-10T01:57:03.500Z,997.82
2018-03-10T01:59:03.681Z,997.79
2018-03-10T02:00:03.344Z,997.76
2018-03-10T02:01:03.308Z,997.76
2018-03-10T02:02:03.483Z,997.74
2018-03-10T02:03:03.507Z,997.71
2018-03-10T02:04:03.506Z,997.71
2018-03-10T02:05:03.884Z,997.70
2018-03-10T02:06:03.640Z,997.68
2018-03-10T02:07:03.619Z,997.67
2018-03-10T02:08:03.725Z,997.67
2018-03-10T02:10:04.841Z,997.76
2018-03-10T02:11:03.970Z,997.67
2018-03-10T02:12:03.757Z,997.62
2018-03-10T02:13:03.741Z,997.62
2018-03-10T02:14:03.768Z,997.62
2018-03-10T02:15:03.857Z,997.58
2018-03-10T02:16:03.878Z,997.59
2018-03-10T02:17:04.168Z,997.57
2018-03-10T02:18:03.910Z,997.51
2018-03-10T02:19:04.006Z,997.46
2018-03-10T02:20:03.927Z,997.45
2018-03-10T02:21:04.405Z,997.47
2018-03-10T02:22:04.011Z,997.44
2018-03-10T02:23:04.352Z,997.46
2018-03-10T02:24:05.107Z,997.44
2018-03-10T02:25:04.054Z,997.47
2018-03-10T02:26:04.141Z,997.47
2018-03-10T02:27:05.670Z,997.50
2018-03-10T02:28:04.454Z,997.47
2018-03-10T02:29:04.524Z,997.49
2018-03-10T02:30:04.462Z,997.50
2018-03-10T02:31:06.205Z,997.48
2018-03-10T02:32:04.322Z,997.48
2018-03-10T02:33:04.285Z,997.49
2018-03-10T02:34:04.432Z,997.45
2018-03-10T02:36:04.903Z,997.46
2018-03-10T02:37:04.763Z,997.42
2018-03-10T02:38:05.359Z,997.41
2018-03-10T02:40:05.668Z,997.39
2018-03-10T02:41:04.992Z,997.38
2018-03-10T02:42:04.961Z,997.38
2018-03-10T02:43:05.048Z,997.36
2018-03-10T02:44:05.442Z,997.32
2018-03-10T02:45:04.926Z,997.28
2018-03-10T02:46:06.083Z,997.25
2018-03-10T02:47:04.877Z,997.26
2018-03-10T02:48:07.699Z,997.23
2018-03-10T02:49:04.971Z,997.24
2018-03-10T02:50:04.971Z,997.20
2018-03-10T02:51:04.955Z,997.18
2018-03-10T02:52:05.042Z,997.17
2018-03-10T02:54:05.486Z,997.16
2018-03-10T02:55:05.891Z,997.19
2018-03-10T02:56:05.265Z,997.11
2018-03-10T02:57:05.169Z,997.17
2018-03-10T02:58:05.251Z,997.14
2018-03-10T02:59:05.313Z,997.10
2018-03-10T03:00:05.480Z,997.15
2018-03-10T03:01:05.384Z,997.10
2018-03-10T03:02:05.779Z,997.08
2018-03-10T03:03:05.347Z,997.08
2018-03-10T03:04:05.616Z,997.04
2018-03-10T03:05:05.300Z,997.02
2018-03-10T03:06:05.651Z,997.04
2018-03-10T03:07:05.451Z,997.00
2018-03-10T03:08:06.859Z,997.05
2018-03-10T03:09:05.497Z,997.05
2018-03-10T03:10:05.830Z,997.07
2018-03-10T03:11:06.025Z,997.12
2018-03-10T03:12:05.788Z,997.09
2018-03-10T03:13:05.563Z,997.10
2018-03-10T03:14:05.798Z,997.11
2018-03-10T03:15:05.559Z,997.06
2018-03-10T03:16:05.632Z,997.01
2018-03-10T03:17:06.792Z,997.01
2018-03-10T03:18:06.163Z,996.99
2018-03-10T03:19:06.214Z,996.95
2018-03-10T03:20:05.752Z,996.94
2018-03-10T03:21:05.845Z,996.97
2018-03-10T03:22:05.974Z,996.93
2018-03-10T03:23:05.898Z,996.92
2018-03-10T03:24:08.695Z,996.89
2018-03-10T03:25:06.488Z,996.92
2018-03-10T03:26:06.095Z,996.86
2018-03-10T03:27:06.044Z,996.86
2018-03-10T03:28:08.342Z,996.86
2018-03-10T03:29:06.916Z,996.84
2018-03-10T03:30:06.759Z,996.86
2018-03-10T03:31:06.178Z,996.88
2018-03-10T03:32:06.085Z,996.83
2018-03-10T03:33:06.628Z,996.89
2018-03-10T03:34:06.191Z,996.82
2018-03-10T03:35:06.218Z,996.79
2018-03-10T03:36:06.537Z,996.80
2018-03-10T03:37:06.301Z,996.77
2018-03-10T03:38:06.358Z,996.81
2018-03-10T03:40:06.353Z,996.75
2018-03-10T03:41:06.368Z,996.74
2018-03-10T03:42:06.805Z,996.72
2018-03-10T03:43:06.422Z,996.70
2018-03-10T03:44:06.467Z,996.71
2018-03-10T03:45:06.514Z,996.71
2018-03-10T03:46:06.551Z,996.67
2018-03-10T03:47:06.785Z,996.69
2018-03-10T03:48:06.903Z,996.73
2018-03-10T03:50:06.653Z,996.70
2018-03-10T03:51:06.680Z,996.71
2018-03-10T03:52:07.262Z,996.67
2018-03-10T03:53:06.813Z,996.62
2018-03-10T03:54:08.443Z,996.58
2018-03-10T03:55:06.800Z,996.62
2018-03-10T03:56:06.851Z,996.59
2018-03-10T03:57:06.854Z,996.58
2018-03-10T03:58:07.905Z,996.52
2018-03-10T03:59:06.915Z,996.53
2018-03-10T04:00:07.251Z,996.55
2018-03-10T04:01:06.989Z,996.53
2018-03-10T04:02:07.027Z,996.53
2018-03-10T04:03:07.061Z,996.52
2018-03-10T04:04:07.496Z,996.51
2018-03-10T04:05:08.233Z,996.51
2018-03-10T04:06:08.075Z,996.50
2018-03-10T04:07:07.645Z,996.46
2018-03-10T04:08:08.254Z,996.44
2018-03-10T04:09:07.427Z,996.50
2018-03-10T04:10:09.112Z,996.44
2018-03-10T04:11:07.322Z,996.47
2018-03-10T04:12:07.661Z,996.45
2018-03-10T04:13:07.340Z,996.45
2018-03-10T04:14:07.404Z,996.45
2018-03-10T04:15:07.440Z,996.42
2018-03-10T04:16:07.521Z,996.42
2018-03-10T04:17:07.482Z,996.44
2018-03-10T04:18:08.322Z,996.45
2018-03-10T04:19:07.557Z,996.43
2018-03-10T04:20:07.601Z,996.46
2018-03-10T04:21:07.613Z,996.47
2018-03-10T04:23:07.713Z,996.44
2018-03-10T04:24:08.008Z,996.41
2018-03-10T04:25:07.884Z,996.37
2018-03-10T04:26:07.900Z,996.42
2018-03-10T04:27:09.553Z,996.37
2018-03-10T04:28:07.811Z,996.34
2018-03-10T04:29:07.854Z,996.36
2018-03-10T04:30:08.410Z,996.42
2018-03-10T04:31:07.978Z,996.38
2018-03-10T04:32:08.148Z,996.40
2018-03-10T04:33:10.273Z,996.40
2018-03-10T04:34:08.066Z,996.40
2018-03-10T04:35:08.150Z,996.38
2018-03-10T04:36:08.394Z,996.37
2018-03-10T04:37:08.994Z,996.39
2018-03-10T04:38:08.125Z,996.39
2018-03-10T04:39:08.150Z,996.42
2018-03-10T04:40:09.397Z,996.44
2018-03-10T04:41:08.207Z,996.43
2018-03-10T04:42:08.537Z,996.39
2018-03-10T04:43:08.344Z,996.41
2018-03-10T04:44:08.316Z,996.42
2018-03-10T04:45:08.353Z,996.41
2018-03-10T04:46:08.585Z,996.40
2018-03-10T04:47:08.400Z,996.45
2018-03-10T04:48:08.713Z,996.44
2018-03-10T04:49:09.146Z,996.47
2018-03-10T04:50:08.532Z,996.43
2018-03-10T04:51:08.512Z,996.41
2018-03-10T04:52:08.538Z,996.45
2018-03-10T04:53:08.598Z,996.44
2018-03-10T04:54:10.161Z,996.41
2018-03-10T04:55:08.675Z,996.40
2018-03-10T04:56:08.728Z,996.41
2018-03-10T04:57:09.743Z,996.40
2018-03-10T04:58:08.730Z,996.41
2018-03-10T04:59:11.602Z,996.37
2018-03-10T05:00:09.169Z,996.41
2018-03-10T05:01:09.097Z,996.40
2018-03-10T05:02:09.761Z,996.47
2018-03-10T05:03:09.012Z,996.41
2018-03-10T05:04:09.565Z,996.41
2018-03-10T05:05:08.965Z,996.41
2018-03-10T05:06:09.283Z,996.41
2018-03-10T05:07:09.435Z,996.39
2018-03-10T05:08:14.286Z,996.37
2018-03-10T05:09:09.156Z,996.36
2018-03-10T05:10:09.105Z,996.38
2018-03-10T05:11:09.555Z,996.39
2018-03-10T05:12:11.031Z,996.40
2018-03-10T05:13:10.617Z,996.39
2018-03-10T05:14:09.226Z,996.38
2018-03-10T05:15:09.252Z,996.37
2018-03-10T05:16:09.293Z,996.39
2018-03-10T05:17:11.118Z,996.35
2018-03-10T05:18:09.649Z,996.33
2018-03-10T05:19:10.741Z,996.34
2018-03-10T05:20:11.242Z,996.32
2018-03-10T05:21:09.434Z,996.27
2018-03-10T05:22:09.754Z,996.30
2018-03-10T05:23:10.177Z,996.32
2018-03-10T05:24:11.154Z,996.33
2018-03-10T05:25:09.676Z,996.31
2018-03-10T05:26:09.603Z,996.35
2018-03-10T05:27:09.620Z,996.33
2018-03-10T05:28:10.645Z,996.30
2018-03-10T05:29:09.688Z,996.30
2018-03-10T05:30:10.015Z,996.30
2018-03-10T05:31:09.775Z,996.34
2018-03-10T05:32:10.724Z,996.32
2018-03-10T05:33:09.796Z,996.26
2018-03-10T05:34:10.230Z,996.30
2018-03-10T05:35:09.880Z,996.33
2018-03-10T05:37:09.925Z,996.37
2018-03-10T05:38:09.987Z,996.42
2018-03-10T05:39:10.233Z,996.43
2018-03-10T05:40:10.579Z,996.46
2018-03-10T05:41:12.288Z,996.47
2018-03-10T05:42:10.409Z,996.48
2018-03-10T05:43:10.240Z,996.48
2018-03-10T05:44:10.163Z,996.45
2018-03-10T05:45:10.178Z,996.43
2018-03-10T05:46:11.824Z,996.46
2018-03-10T05:47:12.833Z,996.48
2018-03-10T05:48:10.720Z,996.50
2018-03-10T05:49:10.410Z,996.47
2018-03-10T05:50:12.812Z,996.47
2018-03-10T05:51:11.534Z,996.47
2018-03-10T05:52:10.491Z,996.50
2018-03-10T05:53:10.471Z,996.53
2018-03-10T05:54:10.870Z,996.53
2018-03-10T05:55:10.491Z,996.49
2018-03-10T05:56:10.525Z,996.43
2018-03-10T05:57:10.574Z,996.48
2018-03-10T05:58:10.600Z,996.46
2018-03-10T05:59:10.606Z,996.48
2018-03-10T06:00:10.940Z,996.49
2018-03-10T06:01:10.878Z,996.46
2018-03-10T06:02:10.864Z,996.47
2018-03-10T06:04:10.794Z,996.45
2018-03-10T06:05:10.900Z,996.47
2018-03-10T06:06:14.035Z,996.47
2018-03-10T06:07:10.915Z,996.48
2018-03-10T06:08:10.994Z,996.52
2018-03-10T06:09:10.978Z,996.47
2018-03-10T06:10:11.606Z,996.52
2018-03-10T06:11:11.842Z,996.47
2018-03-10T06:12:11.393Z,996.45
2018-03-10T06:13:11.037Z,996.50
2018-03-10T06:14:11.208Z,996.48
2018-03-10T06:15:11.480Z,996.49
2018-03-10T06:16:11.221Z,996.50
2018-03-10T06:17:11.202Z,996.47
2018-03-10T06:18:11.622Z,996.47
2018-03-10T06:19:11.395Z,996.52
2018-03-10T06:20:11.263Z,996.47
2018-03-10T06:21:11.429Z,996.48
2018-03-10T06:22:11.741Z,996.49
2018-03-10T06:23:11.505Z,996.49
2018-03-10T06:26:13.774Z,996.53
2018-03-10T06:27:11.499Z,996.53
2018-03-10T06:28:12.350Z,996.56
2018-03-10T06:29:11.994Z,996.59
2018-03-10T06:30:11.831Z,996.51
2018-03-10T06:31:11.996Z,996.52
2018-03-10T06:32:12.076Z,996.51
2018-03-10T06:33:11.656Z,996.49
2018-03-10T06:34:11.712Z,996.47
2018-03-10T06:35:11.847Z,996.49
2018-03-10T06:36:12.139Z,996.48
2018-03-10T06:37:12.173Z,996.49
2018-03-10T06:38:12.012Z,996.47
2018-03-10T06:39:13.245Z,996.46
2018-03-10T06:40:13.423Z,996.44
2018-03-10T06:41:11.947Z,996.46
2018-03-10T06:42:12.055Z,996.44
2018-03-10T06:43:12.334Z,996.44
2018-03-10T06:44:12.360Z,996.46
2018-03-10T06:45:12.184Z,996.49
2018-03-10T06:46:12.156Z,996.49
2018-03-10T06:47:12.596Z,996.48
2018-03-10T06:48:12.229Z,996.46
2018-03-10T06:49:14.595Z,996.50
2018-03-10T06:50:12.278Z,996.50
2018-03-10T06:51:12.376Z,996.50
2018-03-10T06:52:12.284Z,996.51
2018-03-10T06:53:12.418Z,996.49
2018-03-10T06:55:12.839Z,996.53
2018-03-10T06:56:12.621Z,996.57
2018-03-10T06:57:12.462Z,996.55
2018-03-10T06:58:13.202Z,996.61
2018-03-10T06:59:12.918Z,996.60
2018-03-10T07:00:12.773Z,996.57
2018-03-10T07:01:13.383Z,996.62
2018-03-10T07:02:12.718Z,996.62
2018-03-10T07:03:12.930Z,996.64
2018-03-10T07:04:13.094Z,996.64
2018-03-10T07:05:13.393Z,996.64
2018-03-10T07:06:13.865Z,996.65
2018-03-10T07:07:13.103Z,996.68
2018-03-10T07:08:12.981Z,996.66
2018-03-10T07:09:12.853Z,996.64
2018-03-10T07:10:12.957Z,996.66
2018-03-10T07:11:12.996Z,996.70
2018-03-10T07:12:12.876Z,996.72
2018-03-10T07:13:13.324Z,996.73
2018-03-10T07:14:12.929Z,996.72
2018-03-10T07:15:13.005Z,996.71
2018-03-10T07:16:12.981Z,996.72
2018-03-10T07:17:13.136Z,996.70
2018-03-10T07:18:13.614Z,996.70
2018-03-10T07:19:13.495Z,996.69
2018-03-10T07:20:13.168Z,996.69
2018-03-10T07:21:13.284Z,996.66
2018-03-10T07:22:13.253Z,996.65
2018-03-10T07:23:13.354Z,996.67
2018-03-10T07:24:14.130Z,996.61
2018-03-10T07:25:14.994Z,996.65
2018-03-10T07:26:13.384Z,996.60
2018-03-10T07:27:14.025Z,996.63
2018-03-10T07:28:13.420Z,996.62
2018-03-10T07:29:13.428Z,996.62
2018-03-10T07:30:13.491Z,996.61
2018-03-10T07:31:13.866Z,996.68
2018-03-10T07:32:13.757Z,996.68
2018-03-10T07:33:13.608Z,996.70
2018-03-10T07:34:13.960Z,996.70
2018-03-10T07:35:13.623Z,996.74
2018-03-10T07:36:13.628Z,996.73
2018-03-10T07:37:14.000Z,996.72
2018-03-10T07:38:13.709Z,996.73
2018-03-10T07:39:13.704Z,996.73
2018-03-10T07:40:13.944Z,996.77
2018-03-10T07:41:13.912Z,996.72
2018-03-10T07:42:14.053Z,996.75
2018-03-10T07:43:14.569Z,996.76
2018-03-10T07:44:16.175Z,996.75
2018-03-10T07:46:13.974Z,996.79
2018-03-10T07:47:14.003Z,996.76
2018-03-10T07:48:16.858Z,996.79
2018-03-10T07:49:15.162Z,996.79
2018-03-10T07:50:14.261Z,996.79
2018-03-10T07:51:14.142Z,996.81
2018-03-10T07:52:14.161Z,996.85
2018-03-10T07:53:14.297Z,996.87
2018-03-10T07:54:14.315Z,996.90
2018-03-10T07:55:14.559Z,996.91
2018-03-10T07:56:14.348Z,996.91
2018-03-10T07:57:14.350Z,996.92
2018-03-10T07:58:14.290Z,996.91
2018-03-10T07:59:14.388Z,996.88
2018-03-10T08:00:14.435Z,996.90
2018-03-10T08:01:14.736Z,996.87
2018-03-10T08:02:14.545Z,996.88
2018-03-10T08:03:14.506Z,996.86
2018-03-10T08:04:14.688Z,996.83
2018-03-10T08:05:14.778Z,996.84
2018-03-10T08:06:14.612Z,996.85
2018-03-10T08:07:16.264Z,996.83
2018-03-10T08:08:14.655Z,996.84
2018-03-10T08:09:14.929Z,996.79
2018-03-10T08:10:14.699Z,996.79
2018-03-10T08:11:14.785Z,996.81
2018-03-10T08:12:14.793Z,996.80
2018-03-10T08:13:15.170Z,996.83
2018-03-10T08:14:14.857Z,996.83
2018-03-10T08:15:14.870Z,996.83
2018-03-10T08:16:14.847Z,996.87
2018-03-10T08:17:14.924Z,996.86
2018-03-10T08:18:14.991Z,996.85
2018-03-10T08:19:15.233Z,996.87
2018-03-10T08:20:15.193Z,996.90
2018-03-10T08:21:15.066Z,996.90
2018-03-10T08:22:15.139Z,996.92
2018-03-10T08:23:15.125Z,996.92
2018-03-10T08:24:15.092Z,996.89
2018-03-10T08:25:15.523Z,996.92
2018-03-10T08:26:15.193Z,996.91
2018-03-10T08:27:15.282Z,996.87
2018-03-10T08:28:15.209Z,996.83
2018-03-10T08:29:15.291Z,996.88
2018-03-10T08:30:15.318Z,996.86
2018-03-10T08:31:15.678Z,996.85
2018-03-10T08:32:15.402Z,996.84
2018-03-10T08:33:15.796Z,996.82
2018-03-10T08:34:15.719Z,996.82
2018-03-10T08:35:15.489Z,996.84
2018-03-10T08:36:15.727Z,996.80
2018-03-10T08:37:15.868Z,996.79
2018-03-10T08:38:15.666Z,996.78
2018-03-10T08:39:15.710Z,996.76
2018-03-10T08:40:15.756Z,996.78
2018-03-10T08:41:15.689Z,996.75
2018-03-10T08:42:15.717Z,996.77
2018-03-10T08:43:16.044Z,996.75
2018-03-10T08:44:16.952Z,996.74
2018-03-10T08:45:15.780Z,996.71
2018-03-10T08:46:16.232Z,996.69
2018-03-10T08:47:15.811Z,996.70
2018-03-10T08:48:15.918Z,996.66
2018-03-10T08:49:16.192Z,996.70
2018-03-10T08:50:15.971Z,996.70
2018-03-10T08:51:16.066Z,996.64
2018-03-10T08:52:16.022Z,996.71
2018-03-10T08:53:16.252Z,996.70
2018-03-10T08:54:16.064Z,996.68
2018-03-10T08:55:17.609Z,996.68
2018-03-10T08:56:16.164Z,996.74
2018-03-10T08:57:16.177Z,996.71
2018-03-10T08:58:16.201Z,996.81
2018-03-10T08:59:16.265Z,996.79
2018-03-10T09:00:16.280Z,996.82
2018-03-10T09:01:16.600Z,996.79
2018-03-10T09:02:16.356Z,996.76
2018-03-10T09:03:16.363Z,996.78
2018-03-10T09:04:16.608Z,996.77
2018-03-10T09:05:16.385Z,996.79
2018-03-10T09:06:16.440Z,996.79
2018-03-10T09:07:17.092Z,996.85
2018-03-10T09:08:16.550Z,996.86
2018-03-10T09:09:16.747Z,996.86
2018-03-10T09:10:16.556Z,996.83
2018-03-10T09:11:16.584Z,996.82
2018-03-10T09:12:16.608Z,996.84
2018-03-10T09:13:16.943Z,996.84
2018-03-10T09:14:17.066Z,996.86
2018-03-10T09:15:17.114Z,996.87
2018-03-10T09:16:16.792Z,996.85
2018-03-10T09:17:16.850Z,996.86
2018-03-10T09:18:16.809Z,996.88
2018-03-10T09:19:17.247Z,996.91
2018-03-10T09:20:16.917Z,996.91
2018-03-10T09:21:17.002Z,996.87
2018-03-10T09:22:17.008Z,996.84
2018-03-10T09:23:17.015Z,996.87
2018-03-10T09:24:17.003Z,996.86
2018-03-10T09:25:17.373Z,996.88
2018-03-10T09:26:17.111Z,996.88
2018-03-10T09:27:17.300Z,996.88
2018-03-10T09:28:17.165Z,996.83
2018-03-10T09:29:17.243Z,996.88
2018-03-10T09:30:17.196Z,996.87
2018-03-10T09:31:17.573Z,996.89
2018-03-10T09:32:17.260Z,996.91
2018-03-10T09:33:17.310Z,996.91
2018-03-10T09:34:17.353Z,996.92
2018-03-10T09:35:17.404Z,996.92
2018-03-10T09:36:17.443Z,996.94
2018-03-10T09:37:18.029Z,996.96
2018-03-10T09:38:17.556Z,996.96
2018-03-10T09:39:17.562Z,996.95
2018-03-10T09:40:17.549Z,996.98
2018-03-10T09:41:17.593Z,996.97
2018-03-10T09:42:17.625Z,996.94
2018-03-10T09:43:17.944Z,996.92
2018-03-10T09:44:17.673Z,996.93
2018-03-10T09:45:17.804Z,996.94
2018-03-10T09:46:17.759Z,996.98
2018-03-10T09:47:17.803Z,996.97
2018-03-10T09:48:17.905Z,996.99
2018-03-10T09:49:18.150Z,997.00
2018-03-10T09:50:17.881Z,997.03
2018-03-10T09:51:17.900Z,997.06
2018-03-10T09:52:17.933Z,997.04
2018-03-10T09:53:17.995Z,997.07
2018-03-10T09:54:18.041Z,997.05
2018-03-10T09:55:18.354Z,997.07
2018-03-10T09:56:18.075Z,997.07
2018-03-10T09:57:18.701Z,997.04
2018-03-10T09:58:18.118Z,997.03
2018-03-10T09:59:18.180Z,997.03
2018-03-10T10:00:18.159Z,997.01
2018-03-10T10:01:18.535Z,997.05
2018-03-10T10:02:18.250Z,997.02
2018-03-10T10:03:18.278Z,997.04
2018-03-10T10:04:21.155Z,997.02
2018-03-10T10:05:18.352Z,997.05
2018-03-10T10:06:18.446Z,997.05
2018-03-10T10:07:18.718Z,997.04
2018-03-10T10:08:18.475Z,997.06
2018-03-10T10:09:18.552Z,997.07
2018-03-10T10:10:18.526Z,997.07
2018-03-10T10:11:18.581Z,997.09
2018-03-10T10:12:18.955Z,997.07
2018-03-10T10:13:18.928Z,997.07
2018-03-10T10:14:18.716Z,997.09
2018-03-10T10:15:18.698Z,997.09
2018-03-10T10:16:18.746Z,997.02
2018-03-10T10:17:18.805Z,997.07
2018-03-10T10:18:18.801Z,997.05
2018-03-10T10:19:19.160Z,997.06
2018-03-10T10:20:18.854Z,997.06
2018-03-10T10:21:18.897Z,997.04
2018-03-10T10:22:19.226Z,997.04
2018-03-10T10:23:18.925Z,997.03
2018-03-10T10:24:19.397Z,997.03
2018-03-10T10:25:19.305Z,997.04
2018-03-10T10:26:19.072Z,997.07
2018-03-10T10:27:19.053Z,997.05
2018-03-10T10:28:19.194Z,997.05
2018-03-10T10:29:19.477Z,997.04
2018-03-10T10:30:19.242Z,997.01
2018-03-10T10:31:19.584Z,997.02
2018-03-10T10:32:19.688Z,997.00
2018-03-10T10:33:19.300Z,996.99
2018-03-10T10:34:19.427Z,997.02
2018-03-10T10:35:19.313Z,997.02
2018-03-10T10:37:19.767Z,996.98
2018-03-10T10:38:19.517Z,996.99
2018-03-10T10:39:19.443Z,996.99
2018-03-10T10:40:19.503Z,996.98
2018-03-10T10:41:19.620Z,996.92
2018-03-10T10:42:19.571Z,996.91
2018-03-10T10:43:19.878Z,996.95
2018-03-10T10:44:19.589Z,996.90
2018-03-10T10:45:19.690Z,996.91
2018-03-10T10:46:19.786Z,996.91
2018-03-10T10:47:19.724Z,996.91
2018-03-10T10:48:20.130Z,996.89
2018-03-10T10:49:20.091Z,996.93
2018-03-10T10:50:19.856Z,996.92
2018-03-10T10:51:19.887Z,996.88
2018-03-10T10:52:19.879Z,996.90
2018-03-10T10:53:20.088Z,996.86
2018-03-10T10:54:19.959Z,996.89
2018-03-10T10:55:20.263Z,996.91
2018-03-10T10:56:20.040Z,996.88
2018-03-10T10:57:20.080Z,996.87
2018-03-10T10:58:20.086Z,996.89
2018-03-10T10:59:20.098Z,996.89
2018-03-10T11:00:20.209Z,996.91
2018-03-10T11:01:20.568Z,996.88
2018-03-10T11:02:20.306Z,996.89
2018-03-10T11:03:20.290Z,996.88
2018-03-10T11:04:20.296Z,996.89
2018-03-10T11:05:20.316Z,996.90
2018-03-10T11:06:20.337Z,996.87
2018-03-10T11:07:20.669Z,996.88
2018-03-10T11:09:20.501Z,996.85
2018-03-10T11:10:20.488Z,996.86
2018-03-10T11:11:20.548Z,996.81
2018-03-10T11:12:20.543Z,996.79
2018-03-10T11:13:20.876Z,996.80
2018-03-10T11:14:20.596Z,996.78
2018-03-10T11:15:20.752Z,996.74
2018-03-10T11:16:20.694Z,996.78
2018-03-10T11:17:20.706Z,996.76
2018-03-10T11:18:20.974Z,996.75
2018-03-10T11:19:21.025Z,996.73
2018-03-10T11:20:20.799Z,996.77
2018-03-10T11:21:20.948Z,996.71
2018-03-10T11:22:20.898Z,996.73
2018-03-10T11:23:20.908Z,996.72
2018-03-10T11:24:20.971Z,996.68
2018-03-10T11:25:21.277Z,996.75
2018-03-10T11:26:21.021Z,996.70
2018-03-10T11:27:21.458Z,996.71
2018-03-10T11:28:21.087Z,996.68
2018-03-10T11:29:21.155Z,996.68
2018-03-10T11:30:21.098Z,996.68
2018-03-10T11:31:21.520Z,996.67
2018-03-10T11:32:21.190Z,996.70
2018-03-10T11:33:21.354Z,996.71
2018-03-10T11:34:21.290Z,996.70
2018-03-10T11:35:21.309Z,996.68
2018-03-10T11:36:21.312Z,996.73
2018-03-10T11:37:21.709Z,996.68
2018-03-10T11:38:21.429Z,996.71
2018-03-10T11:39:21.439Z,996.72
2018-03-10T11:40:21.446Z,996.71
2018-03-10T11:41:21.480Z,996.67
2018-03-10T11:42:21.526Z,996.69
2018-03-10T11:43:22.062Z,996.63
2018-03-10T11:44:21.597Z,996.63
2018-03-10T11:45:21.717Z,996.60
2018-03-10T11:46:21.647Z,996.60
2018-03-10T11:47:21.712Z,996.62
2018-03-10T11:48:21.714Z,996.60
2018-03-10T11:49:22.036Z,996.61
2018-03-10T11:50:21.796Z,996.58
2018-03-10T11:51:21.846Z,996.60
2018-03-10T11:52:21.829Z,996.61
2018-03-10T11:53:21.898Z,996.60
2018-03-10T11:54:21.953Z,996.62
2018-03-10T11:55:22.321Z,996.58
2018-03-10T11:56:21.954Z,996.57
2018-03-10T11:57:22.035Z,996.59
2018-03-10T11:58:22.072Z,996.59
2018-03-10T11:59:22.078Z,996.57
2018-03-10T12:00:22.163Z,996.57
2018-03-10T12:01:22.521Z,996.57
2018-03-10T12:02:22.238Z,996.58
2018-03-10T12:03:22.232Z,996.55
2018-03-10T12:04:22.492Z,996.54
2018-03-10T12:05:22.339Z,996.55
2018-03-10T12:06:22.342Z,996.51
2018-03-10T12:07:22.645Z,996.52
2018-03-10T12:08:22.635Z,996.46
2018-03-10T12:09:22.674Z,996.48
2018-03-10T12:10:22.444Z,996.41
2018-03-10T12:11:22.572Z,996.41
2018-03-10T12:12:22.537Z,996.43
2018-03-10T12:13:22.850Z,996.42
2018-03-10T12:14:22.685Z,996.39
2018-03-10T12:15:22.639Z,996.38
2018-03-10T12:16:22.661Z,996.37
2018-03-10T12:17:22.719Z,996.36
2018-03-10T12:18:22.712Z,996.37
2018-03-10T12:19:23.073Z,996.37
2018-03-10T12:20:22.782Z,996.36
2018-03-10T12:21:22.842Z,996.35
2018-03-10T12:22:22.936Z,996.32
2018-03-10T12:23:22.927Z,996.32
2018-03-10T12:24:22.947Z,996.30
2018-03-10T12:25:23.307Z,996.32
2018-03-10T12:26:23.010Z,996.29
2018-03-10T12:28:23.074Z,996.28
2018-03-10T12:29:23.132Z,996.25
2018-03-10T12:30:23.432Z,996.24
2018-03-10T12:31:23.599Z,996.25
2018-03-10T12:32:23.226Z,996.25
2018-03-10T12:33:23.413Z,996.26
2018-03-10T12:34:23.342Z,996.25
2018-03-10T12:35:23.594Z,996.22
2018-03-10T12:36:23.590Z,996.23
2018-03-10T12:37:24.848Z,996.21
2018-03-10T12:38:23.461Z,996.19
2018-03-10T12:39:23.636Z,996.18
2018-03-10T12:40:23.457Z,996.18
2018-03-10T12:41:23.532Z,996.21
2018-03-10T12:42:23.584Z,996.15
2018-03-10T12:43:23.990Z,996.15
2018-03-10T12:44:23.634Z,996.18
2018-03-10T12:45:23.992Z,996.14
2018-03-10T12:46:23.664Z,996.12
2018-03-10T12:47:24.077Z,996.20